createdAt,value
2019-04-19T00:00:32.839Z,63.13
2019-04-19T00:01:32.312Z,63.13
2019-04-19T00:02:38.364Z,63.79
2019-04-19T00:03:34.571Z,63.51
2019-04-19T00:04:33.184Z,63.89
2019-04-19T00:05:35.844Z,63.70
2019-04-19T00:06:36.670Z,63.60
2019-04-19T00:07:32.146Z,63.79
2019-04-19T00:08:45.323Z,63.89
2019-04-19T00:09:45.950Z,63.79
2019-04-19T00:10:38.420Z,63.70
2019-04-19T00:11:39.499Z,64.05
2019-04-19T00:12:37.344Z,63.89
2019-04-19T00:13:32.518Z,64.37
2019-04-19T00:14:31.822Z,64.46
2019-04-19T00:15:32.808Z,64.27
2019-04-19T00:16:32.091Z,64.46
2019-04-19T00:17:34.267Z,64.34
2019-04-19T00:18:32.763Z,64.65
2019-04-19T00:19:53.752Z,64.43
2019-04-19T00:20:49.972Z,64.62
2019-04-19T00:21:57.987Z,64.62
2019-04-19T00:22:51.019Z,64.72
2019-04-19T00:23:38.306Z,64.34
2019-04-19T00:24:31.914Z,64.43
2019-04-19T00:25:32.453Z,64.81
2019-04-19T00:26:31.781Z,64.53
2019-04-19T00:27:39.575Z,65.03
2019-04-19T00:28:41.379Z,64.65
2019-04-19T00:29:42.812Z,64.84
2019-04-19T00:30:44.339Z,64.56
2019-04-19T00:31:43.830Z,64.08
2019-04-19T00:32:42.986Z,63.89
2019-04-19T00:33:36.547Z,63.92
2019-04-19T00:34:31.580Z,63.64
2019-04-19T00:35:32.606Z,63.83
2019-04-19T00:36:31.901Z,63.07
2019-04-19T00:37:31.434Z,63.54
2019-04-19T00:38:42.513Z,62.72
2019-04-19T00:39:46.568Z,62.53
2019-04-19T00:40:44.966Z,62.15
2019-04-19T00:41:55.314Z,61.96
2019-04-19T00:42:48.014Z,61.58
2019-04-19T00:43:52.250Z,61.10
2019-04-19T00:44:52.842Z,61.29
2019-04-19T00:45:41.652Z,61.67
2019-04-19T00:46:53.446Z,60.85
2019-04-19T00:47:49.910Z,60.94
2019-04-19T00:48:48.698Z,60.46
2019-04-19T00:49:39.912Z,60.46
2019-04-19T00:50:47.079Z,60.37
2019-04-19T00:51:50.222Z,60.85
2019-04-19T00:52:50.316Z,60.56
2019-04-19T00:53:40.697Z,60.46
2019-04-19T00:54:41.172Z,60.18
2019-04-19T00:55:47.394Z,60.18
2019-04-19T00:56:42.828Z,59.70
2019-04-19T00:57:39.246Z,59.89
2019-04-19T00:58:34.039Z,59.35
2019-04-19T00:59:36.809Z,59.26
2019-04-19T01:00:36.394Z,59.35
2019-04-19T01:01:32.454Z,59.06
2019-04-19T01:02:35.922Z,58.78
2019-04-19T01:03:36.770Z,58.69
2019-04-19T01:04:33.177Z,59.16
2019-04-19T01:05:37.468Z,58.87
2019-04-19T01:06:35.782Z,58.33
2019-04-19T01:07:34.975Z,58.33
2019-04-19T01:08:30.933Z,58.24
2019-04-19T01:09:42.380Z,57.57
2019-04-19T01:10:40.630Z,57.86
2019-04-19T01:11:42.259Z,57.95
2019-04-19T01:12:47.932Z,57.67
2019-04-19T01:13:47.148Z,57.38
2019-04-19T01:14:42.034Z,57.38
2019-04-19T01:15:40.718Z,57.48
2019-04-19T01:16:48.878Z,57.48
2019-04-19T01:17:50.022Z,57.57
2019-04-19T01:18:43.343Z,57.09
2019-04-19T01:19:32.045Z,57.19
2019-04-19T01:20:31.158Z,57.00
2019-04-19T01:21:30.723Z,57.00
2019-04-19T01:22:31.835Z,56.81
2019-04-19T01:23:31.170Z,56.93
2019-04-19T01:24:36.639Z,56.17
2019-04-19T01:25:32.139Z,56.26
2019-04-19T01:26:37.203Z,56.65
2019-04-19T01:27:34.012Z,56.46
2019-04-19T01:28:32.163Z,55.79
2019-04-19T01:29:38.123Z,55.60
2019-04-19T01:30:36.398Z,55.41
2019-04-19T01:31:31.263Z,55.21
2019-04-19T01:32:30.569Z,55.02
2019-04-19T01:33:34.534Z,54.83
2019-04-19T01:34:32.144Z,55.02
2019-04-19T01:35:32.699Z,54.64
2019-04-19T01:36:35.176Z,54.55
2019-04-19T01:37:32.747Z,54.67
2019-04-19T01:38:31.713Z,54.77
2019-04-19T01:39:51.124Z,54.17
2019-04-19T01:40:53.457Z,54.26
2019-04-19T01:41:47.164Z,54.45
2019-04-19T01:42:45.326Z,54.07
2019-04-19T01:43:49.716Z,54.36
2019-04-19T01:44:51.587Z,54.17
2019-04-19T01:45:51.345Z,54.55
2019-04-19T01:46:43.629Z,54.64
2019-04-19T01:47:46.513Z,54.74
2019-04-19T01:48:49.392Z,54.36
2019-04-19T01:49:49.224Z,54.26
2019-04-19T01:50:48.915Z,54.26
2019-04-19T01:51:47.934Z,54.17
2019-04-19T01:52:50.834Z,54.26
2019-04-19T01:53:47.272Z,54.26
2019-04-19T01:54:45.391Z,54.17
2019-04-19T01:55:35.160Z,54.17
2019-04-19T01:56:30.512Z,54.17
2019-04-19T01:57:30.410Z,54.26
2019-04-19T01:58:31.345Z,54.17
2019-04-19T01:59:33.315Z,54.17
2019-04-19T02:00:37.776Z,54.17
2019-04-19T02:01:33.198Z,54.17
2019-04-19T02:02:31.095Z,54.26
2019-04-19T02:03:38.007Z,54.26
2019-04-19T02:04:33.234Z,54.26
2019-04-19T02:05:30.035Z,54.26
2019-04-19T02:06:36.459Z,54.26
2019-04-19T02:07:32.785Z,54.26
2019-04-19T02:08:33.161Z,53.78
2019-04-19T02:09:42.477Z,53.97
2019-04-19T02:10:43.986Z,53.69
2019-04-19T02:11:39.412Z,53.88
2019-04-19T02:12:42.036Z,53.97
2019-04-19T02:13:35.250Z,53.88
2019-04-19T02:14:40.698Z,53.78
2019-04-19T02:15:37.684Z,53.88
2019-04-19T02:16:31.162Z,53.97
2019-04-19T02:17:34.805Z,53.88
2019-04-19T02:18:32.392Z,53.88
2019-04-19T02:19:31.965Z,53.88
2019-04-19T02:20:36.602Z,53.59
2019-04-19T02:21:33.262Z,53.50
2019-04-19T02:22:33.567Z,53.50
2019-04-19T02:23:30.356Z,53.59
2019-04-19T02:24:37.071Z,53.50
2019-04-19T02:25:31.349Z,53.59
2019-04-19T02:26:30.065Z,53.50
2019-04-19T02:27:34.966Z,53.59
2019-04-19T02:28:35.807Z,53.41
2019-04-19T02:29:31.739Z,53.50
2019-04-19T02:30:43.811Z,53.69
2019-04-19T02:31:53.699Z,53.21
2019-04-19T02:32:47.215Z,53.12
2019-04-19T02:34:08.949Z,53.21
2019-04-19T02:37:00.590Z,53.31
2019-04-19T02:39:08.709Z,53.12
2019-04-19T02:41:59.870Z,52.92
2019-04-19T02:43:01.583Z,52.92
2019-04-19T02:43:58.095Z,53.12
2019-04-19T02:44:58.726Z,53.12
2019-04-19T02:46:25.087Z,52.73
2019-04-19T02:47:14.792Z,52.73
2019-04-19T02:49:02.168Z,52.28
2019-04-19T02:49:58.018Z,52.16
2019-04-19T02:52:58.776Z,52.07
2019-04-19T02:54:00.145Z,52.55
2019-04-19T02:55:05.323Z,52.36
2019-04-19T02:56:05.326Z,52.64
2019-04-19T02:57:02.281Z,52.45
2019-04-19T02:57:47.929Z,52.73
2019-04-19T02:59:06.424Z,52.26
2019-04-19T03:00:58.994Z,52.73
2019-04-19T03:04:09.542Z,52.16
2019-04-19T03:05:03.584Z,52.36
2019-04-19T03:05:47.425Z,52.45
2019-04-19T03:06:33.550Z,52.45
2019-04-19T03:07:30.143Z,52.45
2019-04-19T03:08:29.297Z,52.36
2019-04-19T03:09:34.696Z,52.26
2019-04-19T03:10:30.938Z,52.73
2019-04-19T03:11:43.922Z,52.55
2019-04-19T03:12:48.277Z,52.73
2019-04-19T03:13:40.783Z,52.64
2019-04-19T03:14:47.625Z,52.73
2019-04-19T03:15:53.097Z,53.31
2019-04-19T03:16:53.834Z,53.12
2019-04-19T03:17:45.024Z,52.92
2019-04-19T03:18:42.637Z,52.92
2019-04-19T03:19:44.210Z,52.92
2019-04-19T03:20:42.486Z,53.00
2019-04-19T03:21:42.903Z,53.28
2019-04-19T03:22:46.089Z,53.28
2019-04-19T03:23:36.559Z,53.19
2019-04-19T03:24:49.291Z,53.09
2019-04-19T03:25:41.041Z,53.19
2019-04-19T03:26:41.350Z,53.56
2019-04-19T03:27:43.303Z,53.56
2019-04-19T03:28:38.726Z,53.66
2019-04-19T03:29:35.288Z,53.56
2019-04-19T03:30:57.417Z,53.38
2019-04-19T03:32:04.693Z,53.66
2019-04-19T03:33:59.515Z,53.66
2019-04-19T03:34:57.416Z,53.66
2019-04-19T03:35:57.098Z,53.66
2019-04-19T03:36:42.531Z,53.66
2019-04-19T03:37:52.762Z,53.76
2019-04-19T03:38:45.710Z,54.04
2019-04-19T03:39:57.096Z,54.24
2019-04-19T03:40:46.829Z,54.24
2019-04-19T03:41:57.388Z,54.24
2019-04-19T03:43:00.476Z,54.14
2019-04-19T03:43:47.602Z,54.21
2019-04-19T03:44:41.577Z,54.24
2019-04-19T03:45:51.465Z,54.78
2019-04-19T03:46:55.858Z,54.59
2019-04-19T03:47:53.046Z,54.59
2019-04-19T03:48:50.337Z,54.39
2019-04-19T03:49:45.106Z,54.59
2019-04-19T03:50:43.869Z,55.16
2019-04-19T03:51:57.455Z,55.16
2019-04-19T03:52:49.023Z,54.97
2019-04-19T03:54:00.174Z,54.68
2019-04-19T03:54:46.771Z,54.97
2019-04-19T03:55:49.932Z,55.26
2019-04-19T03:56:43.637Z,55.16
2019-04-19T03:57:39.738Z,54.97
2019-04-19T03:58:29.257Z,54.78
2019-04-19T03:59:29.087Z,54.68
2019-04-19T04:00:28.228Z,54.78
2019-04-19T04:01:36.540Z,54.97
2019-04-19T04:02:34.703Z,54.97
2019-04-19T04:03:35.744Z,55.16
2019-04-19T04:04:30.810Z,55.07
2019-04-19T04:05:30.304Z,54.97
2019-04-19T04:06:32.659Z,55.16
2019-04-19T04:07:30.719Z,55.26
2019-04-19T04:08:29.770Z,54.68
2019-04-19T04:09:33.213Z,54.68
2019-04-19T04:10:34.086Z,54.52
2019-04-19T04:11:29.961Z,54.52
2019-04-19T04:12:37.992Z,54.52
2019-04-19T04:13:38.424Z,54.71
2019-04-19T04:14:46.209Z,54.59
2019-04-19T04:15:41.763Z,54.71
2019-04-19T04:16:35.737Z,54.59
2019-04-19T04:17:28.918Z,54.68
2019-04-19T04:18:28.262Z,54.49
2019-04-19T04:19:29.274Z,54.30
2019-04-19T04:20:28.474Z,54.59
2019-04-19T04:21:36.502Z,54.59
2019-04-19T04:22:33.077Z,54.52
2019-04-19T04:23:34.187Z,54.52
2019-04-19T04:24:34.502Z,54.52
2019-04-19T04:25:31.628Z,54.52
2019-04-19T04:26:35.360Z,54.14
2019-04-19T04:27:41.773Z,54.24
2019-04-19T04:28:44.628Z,54.21
2019-04-19T04:29:35.599Z,54.24
2019-04-19T04:30:36.105Z,54.33
2019-04-19T04:31:42.084Z,54.14
2019-04-19T04:32:39.416Z,53.95
2019-04-19T04:33:41.009Z,53.95
2019-04-19T04:34:40.807Z,54.24
2019-04-19T04:35:42.390Z,54.24
2019-04-19T04:36:46.693Z,54.04
2019-04-19T04:37:40.925Z,54.24
2019-04-19T04:38:34.424Z,54.24
2019-04-19T04:39:28.306Z,54.14
2019-04-19T04:40:27.741Z,54.24
2019-04-19T04:41:30.782Z,54.33
2019-04-19T04:42:33.965Z,54.14
2019-04-19T04:43:39.087Z,54.24
2019-04-19T04:44:51.717Z,53.66
2019-04-19T04:45:49.556Z,53.85
2019-04-19T04:46:52.972Z,53.66
2019-04-19T04:47:45.980Z,53.38
2019-04-19T04:48:43.911Z,53.76
2019-04-19T04:49:55.119Z,53.56
2019-04-19T04:50:55.142Z,53.56
2019-04-19T04:51:44.652Z,53.38
2019-04-19T04:52:32.574Z,53.28
2019-04-19T04:53:27.868Z,53.09
2019-04-19T04:54:27.392Z,53.19
2019-04-19T04:55:28.345Z,53.38
2019-04-19T04:56:37.582Z,53.47
2019-04-19T04:57:36.880Z,53.09
2019-04-19T04:58:32.697Z,53.38
2019-04-19T04:59:28.871Z,53.38
2019-04-19T05:00:38.091Z,53.09
2019-04-19T05:01:39.421Z,53.38
2019-04-19T05:02:42.699Z,53.28
2019-04-19T05:03:44.312Z,53.19
2019-04-19T05:04:37.730Z,53.19
2019-04-19T05:05:46.104Z,52.90
2019-04-19T05:06:49.232Z,53.28
2019-04-19T05:07:47.778Z,53.28
2019-04-19T05:08:46.304Z,53.09
2019-04-19T05:09:44.692Z,53.19
2019-04-19T05:10:39.546Z,53.09
2019-04-19T05:11:51.104Z,53.09
2019-04-19T05:13:07.871Z,53.00
2019-04-19T05:13:43.672Z,53.47
2019-04-19T05:14:43.990Z,53.09
2019-04-19T05:15:47.947Z,53.47
2019-04-19T05:16:53.708Z,53.28
2019-04-19T05:17:54.216Z,53.28
2019-04-19T05:18:45.038Z,53.28
2019-04-19T05:19:54.048Z,53.28
2019-04-19T05:20:42.542Z,53.12
2019-04-19T05:21:40.128Z,53.38
2019-04-19T05:22:42.793Z,53.09
2019-04-19T05:23:47.916Z,53.50
2019-04-19T05:24:52.939Z,53.19
2019-04-19T05:27:38.915Z,53.41
2019-04-19T05:28:33.591Z,53.41
2019-04-19T05:30:36.658Z,53.31
2019-04-19T05:31:32.884Z,53.12
2019-04-19T05:33:47.404Z,53.21
2019-04-19T05:34:48.162Z,53.02
2019-04-19T05:36:43.797Z,53.31
2019-04-19T05:37:45.187Z,53.12
2019-04-19T05:39:55.750Z,53.41
2019-04-19T05:40:46.511Z,53.50
2019-04-19T05:42:56.734Z,53.69
2019-04-19T05:44:08.772Z,53.50
2019-04-19T05:47:05.955Z,53.78
2019-04-19T05:47:54.422Z,53.41
2019-04-19T05:50:31.943Z,53.59
2019-04-19T05:51:27.645Z,53.50
2019-04-19T06:10:58.346Z,52.50
2019-04-19T06:11:55.271Z,52.69
2019-04-19T06:15:17.950Z,52.22
2019-04-19T06:16:15.517Z,52.05
2019-04-19T06:26:46.602Z,51.70
2019-04-19T06:27:20.363Z,51.21
2019-04-19T06:28:21.064Z,51.31
2019-04-19T06:29:31.328Z,51.21
2019-04-19T06:30:14.896Z,51.21
2019-04-19T06:31:20.489Z,51.12
2019-04-19T06:32:16.152Z,50.93
2019-04-19T06:33:15.693Z,50.84
2019-04-19T06:34:15.962Z,50.35
2019-04-19T06:35:05.610Z,50.35
2019-04-19T06:36:00.382Z,50.38
2019-04-19T06:37:01.591Z,50.00
2019-04-19T06:37:54.308Z,50.00
2019-04-19T06:38:55.026Z,49.90
2019-04-19T06:40:07.174Z,50.19
2019-04-19T06:41:01.530Z,50.29
2019-04-19T06:42:00.260Z,50.29
2019-04-19T06:43:04.184Z,50.19
2019-04-19T06:44:07.874Z,49.71
2019-04-19T06:45:12.299Z,49.43
2019-04-19T06:46:12.051Z,49.52
2019-04-19T06:47:06.075Z,49.33
2019-04-19T06:48:03.134Z,49.04
2019-04-19T06:49:01.524Z,49.26
2019-04-19T06:49:55.407Z,48.78
2019-04-19T06:50:57.410Z,48.78
2019-04-19T06:52:01.447Z,48.88
2019-04-19T06:52:53.604Z,48.59
2019-04-19T06:53:58.915Z,48.68
2019-04-19T06:54:53.711Z,48.49
2019-04-19T06:56:04.900Z,48.11
2019-04-19T06:57:07.674Z,48.02
2019-04-19T06:58:04.857Z,47.92
2019-04-19T06:59:06.163Z,48.02
2019-04-19T07:00:07.543Z,48.21
2019-04-19T07:01:04.439Z,47.56
2019-04-19T07:01:56.366Z,47.75
2019-04-19T07:02:54.189Z,47.56
2019-04-19T07:03:53.801Z,47.37
2019-04-19T07:05:11.857Z,47.18
2019-04-19T07:06:09.243Z,47.18
2019-04-19T07:07:16.238Z,47.27
2019-04-19T07:08:29.728Z,47.27
2019-04-19T07:09:21.413Z,47.27
2019-04-19T07:10:17.037Z,47.20
2019-04-19T07:11:16.568Z,46.91
2019-04-19T07:12:16.577Z,46.82
2019-04-19T07:13:09.530Z,47.20
2019-04-19T07:14:03.698Z,47.20
2019-04-19T07:15:25.119Z,46.82
2019-04-19T07:16:21.859Z,47.20
2019-04-19T07:17:10.946Z,47.11
2019-04-19T07:18:06.462Z,46.34
2019-04-19T07:19:11.921Z,46.15
2019-04-19T07:20:08.843Z,46.46
2019-04-19T07:21:12.368Z,46.36
2019-04-19T07:22:08.055Z,46.26
2019-04-19T07:23:06.836Z,46.46
2019-04-19T07:24:19.221Z,45.79
2019-04-19T07:25:20.160Z,46.17
2019-04-19T07:26:15.561Z,45.31
2019-04-19T07:27:10.769Z,45.69
2019-04-19T07:28:03.540Z,45.52
2019-04-19T07:28:53.576Z,45.81
2019-04-19T07:29:54.361Z,45.72
2019-04-19T07:30:58.521Z,45.04
2019-04-19T07:31:53.590Z,45.14
2019-04-19T07:33:00.409Z,45.72
2019-04-19T07:34:03.555Z,45.62
2019-04-19T07:35:05.800Z,45.90
2019-04-19T07:36:11.798Z,45.43
2019-04-19T07:37:08.976Z,44.95
2019-04-19T07:38:17.047Z,44.66
2019-04-19T07:39:09.700Z,44.87
2019-04-19T07:40:11.233Z,44.97
2019-04-19T07:41:10.004Z,44.78
2019-04-19T07:42:19.389Z,44.68
2019-04-19T07:43:10.670Z,44.70
2019-04-19T07:44:08.613Z,44.70
2019-04-19T07:44:58.248Z,44.70
2019-04-19T07:46:15.596Z,44.70
2019-04-19T07:47:06.476Z,44.32
2019-04-19T07:48:00.804Z,43.96
2019-04-19T07:48:53.477Z,43.48
2019-04-19T07:50:01.423Z,43.77
2019-04-19T07:51:00.273Z,43.67
2019-04-19T07:52:02.426Z,43.88
2019-04-19T07:52:57.128Z,43.70
2019-04-19T07:53:54.758Z,43.98
2019-04-19T07:54:57.761Z,43.21
2019-04-19T07:56:07.928Z,43.33
2019-04-19T07:57:19.898Z,42.85
2019-04-19T07:58:30.337Z,42.94
2019-04-19T07:59:18.055Z,43.04
2019-04-19T08:00:19.060Z,42.87
2019-04-19T08:01:26.181Z,42.10
2019-04-19T08:03:25.314Z,42.39
2019-04-19T08:04:39.859Z,42.39
2019-04-19T08:05:18.639Z,41.82
2019-04-19T08:06:22.890Z,42.03
2019-04-19T08:07:33.740Z,42.03
2019-04-19T08:09:20.286Z,41.56
2019-04-19T08:10:33.430Z,41.28
2019-04-19T08:11:26.348Z,40.99
2019-04-19T08:13:31.930Z,39.93
2019-04-19T08:16:16.800Z,38.78
2019-04-19T08:18:24.284Z,39.37
2019-04-19T08:28:09.881Z,38.37
2019-04-19T08:29:06.330Z,37.60
2019-04-19T08:30:00.059Z,37.52
2019-04-19T08:30:56.718Z,37.62
2019-04-19T08:31:52.990Z,37.23
2019-04-19T08:32:53.526Z,37.13
2019-04-19T08:33:53.064Z,37.04
2019-04-19T08:34:58.437Z,36.75
2019-04-19T08:35:54.786Z,36.55
2019-04-19T08:36:58.595Z,36.36
2019-04-19T08:38:02.463Z,36.36
2019-04-19T08:39:14.155Z,36.55
2019-04-19T08:40:16.325Z,36.46
2019-04-19T08:41:08.338Z,36.48
2019-04-19T08:42:15.099Z,36.40
2019-04-19T08:43:13.967Z,36.21
2019-04-19T08:44:12.934Z,35.44
2019-04-19T08:44:59.656Z,35.45
2019-04-19T08:45:53.089Z,34.87
2019-04-19T08:46:53.551Z,34.70
2019-04-19T08:48:04.721Z,34.60
2019-04-19T08:48:56.315Z,34.21
2019-04-19T08:49:53.425Z,34.21
2019-04-19T08:50:55.013Z,34.23
2019-04-19T08:51:53.612Z,34.13
2019-04-19T08:52:58.070Z,34.13
2019-04-19T08:54:10.986Z,33.45
2019-04-19T08:55:14.061Z,33.17
2019-04-19T08:56:10.309Z,33.18
2019-04-19T08:57:01.095Z,32.89
2019-04-19T08:58:00.001Z,32.99
2019-04-19T08:59:15.861Z,32.60
2019-04-19T09:00:20.128Z,32.23
2019-04-19T09:01:14.161Z,32.14
2019-04-19T09:02:14.419Z,31.94
2019-04-19T09:03:04.549Z,31.65
2019-04-19T09:04:13.590Z,31.36
2019-04-19T09:05:11.707Z,31.26
2019-04-19T09:06:48.876Z,31.46
2019-04-19T09:08:13.581Z,30.88
2019-04-19T09:09:08.544Z,30.88
2019-04-19T09:10:23.782Z,30.98
2019-04-19T09:11:11.205Z,30.98
2019-04-19T09:12:12.088Z,30.98
2019-04-19T09:13:22.201Z,30.68
2019-04-19T09:14:12.628Z,30.68
2019-04-19T09:15:15.435Z,30.58
2019-04-19T09:16:12.470Z,30.39
2019-04-19T09:17:16.417Z,30.49
2019-04-19T09:19:14.918Z,30.49
2019-04-19T09:20:16.514Z,30.49
2019-04-19T09:21:09.776Z,30.68
2019-04-19T09:22:17.782Z,30.41
2019-04-19T09:23:11.671Z,30.42
2019-04-19T09:24:02.041Z,30.04
2019-04-19T09:24:57.173Z,29.16
2019-04-19T09:26:04.592Z,29.16
2019-04-19T09:27:06.298Z,28.87
2019-04-19T09:28:18.224Z,28.87
2019-04-19T09:29:19.521Z,28.87
2019-04-19T09:30:11.545Z,28.77
2019-04-19T09:31:10.402Z,29.08
2019-04-19T09:32:02.725Z,28.50
2019-04-19T09:32:53.266Z,28.50
2019-04-19T09:33:55.670Z,28.80
2019-04-19T09:34:59.776Z,28.43
2019-04-19T09:35:58.921Z,28.15
2019-04-19T09:37:02.112Z,28.15
2019-04-19T09:38:04.863Z,27.78
2019-04-19T09:39:10.788Z,27.11
2019-04-19T09:39:59.798Z,26.92
2019-04-19T09:40:57.846Z,26.90
2019-04-19T09:41:59.170Z,26.81
2019-04-19T09:43:09.362Z,26.70
2019-04-19T09:44:05.027Z,26.98
2019-04-19T09:44:56.619Z,26.89
2019-04-19T09:45:53.298Z,26.59
2019-04-19T09:46:53.007Z,26.59
2019-04-19T09:47:52.449Z,26.76
2019-04-19T09:49:09.384Z,26.95
2019-04-19T09:50:04.391Z,26.95
2019-04-19T09:51:10.233Z,26.95
2019-04-19T09:52:16.184Z,27.03
2019-04-19T09:53:17.903Z,27.14
2019-04-19T09:54:16.269Z,27.24
2019-04-19T09:55:15.535Z,27.35
2019-04-19T09:56:12.035Z,27.17
2019-04-19T09:57:05.178Z,27.28
2019-04-19T09:58:12.781Z,27.10
2019-04-19T09:59:04.092Z,26.62
2019-04-19T10:00:03.304Z,26.54
2019-04-19T10:00:54.295Z,25.96
2019-04-19T10:01:56.083Z,26.34
2019-04-19T10:02:56.531Z,25.67
2019-04-19T10:03:56.625Z,25.76
2019-04-19T10:04:52.756Z,25.48
2019-04-19T10:05:53.912Z,25.29
2019-04-19T10:06:53.461Z,25.29
2019-04-19T10:07:52.751Z,25.09
2019-04-19T10:08:52.072Z,25.09
2019-04-19T10:09:56.820Z,24.89
2019-04-19T10:10:52.071Z,25.18
2019-04-19T10:11:53.006Z,25.76
2019-04-19T10:12:52.058Z,25.97
2019-04-19T10:13:53.444Z,25.59
2019-04-19T10:14:52.062Z,24.82
2019-04-19T10:15:52.378Z,24.43
2019-04-19T10:16:52.691Z,24.34
2019-04-19T10:17:52.331Z,24.44
2019-04-19T10:18:58.053Z,24.05
2019-04-19T10:19:52.922Z,23.75
2019-04-19T10:20:52.027Z,23.65
2019-04-19T10:21:52.053Z,23.25
2019-04-19T10:22:52.986Z,23.07
2019-04-19T10:23:52.091Z,22.56
2019-04-19T10:24:54.054Z,23.35
2019-04-19T10:25:57.487Z,23.24
2019-04-19T10:26:52.585Z,23.52
2019-04-19T10:27:52.039Z,23.52
2019-04-19T10:28:52.808Z,23.04
2019-04-19T10:29:53.256Z,23.04
2019-04-19T10:30:52.590Z,22.94
2019-04-19T10:31:53.550Z,22.83
2019-04-19T10:32:54.323Z,23.43
2019-04-19T10:33:56.772Z,23.44
2019-04-19T10:34:52.497Z,23.25
2019-04-19T10:35:52.002Z,22.87
2019-04-19T10:36:53.356Z,22.77
2019-04-19T10:37:51.977Z,22.88
2019-04-19T10:38:54.738Z,22.88
2019-04-19T10:39:52.018Z,22.89
2019-04-19T10:40:51.966Z,22.90
2019-04-19T10:41:52.288Z,22.72
2019-04-19T10:42:51.959Z,22.63
2019-04-19T10:44:02.889Z,22.06
2019-04-19T10:44:52.107Z,21.78
2019-04-19T10:45:52.159Z,21.68
2019-04-19T10:46:51.947Z,21.09
2019-04-19T10:47:51.943Z,21.20
2019-04-19T10:49:01.277Z,21.39
2019-04-19T10:49:57.693Z,21.41
2019-04-19T10:50:53.876Z,21.01
2019-04-19T10:51:52.275Z,20.43
2019-04-19T10:52:52.510Z,20.72
2019-04-19T10:53:52.589Z,20.43
2019-04-19T10:54:51.933Z,20.62
2019-04-19T10:55:52.063Z,20.33
2019-04-19T10:56:52.354Z,20.22
2019-04-19T10:57:51.931Z,20.51
2019-04-19T10:58:52.498Z,19.83
2019-04-19T10:59:52.349Z,20.12
2019-04-19T11:00:51.926Z,19.14
2019-04-19T11:01:52.185Z,19.03
2019-04-19T11:02:52.689Z,19.13
2019-04-19T11:03:52.888Z,18.92
2019-04-19T11:04:53.001Z,18.91
2019-04-19T11:05:52.600Z,18.80
2019-04-19T11:06:51.910Z,19.58
2019-04-19T11:07:51.908Z,19.76
2019-04-19T11:08:51.902Z,19.95
2019-04-19T11:09:51.903Z,19.75
2019-04-19T11:10:51.900Z,19.55
2019-04-19T11:11:51.984Z,20.04
2019-04-19T11:12:52.491Z,20.34
2019-04-19T11:13:52.033Z,20.14
2019-04-19T11:14:52.391Z,19.95
2019-04-19T11:15:52.189Z,19.86
2019-04-19T11:16:51.883Z,20.06
2019-04-19T11:17:51.884Z,19.98
2019-04-19T11:18:53.202Z,19.70
2019-04-19T11:20:05.544Z,19.52
2019-04-19T11:20:54.205Z,19.34
2019-04-19T11:21:51.906Z,19.26
2019-04-19T11:22:51.870Z,19.07
2019-04-19T11:23:51.888Z,18.79
2019-04-19T11:24:52.084Z,18.99
2019-04-19T11:25:52.313Z,18.70
2019-04-19T11:26:52.844Z,19.00
2019-04-19T11:27:53.357Z,18.70
2019-04-19T11:28:51.864Z,18.42
2019-04-19T11:29:52.283Z,18.13
2019-04-19T11:30:52.979Z,17.73
2019-04-19T11:31:52.081Z,17.43
2019-04-19T11:32:52.713Z,18.32
2019-04-19T11:33:53.035Z,18.32
2019-04-19T11:34:51.884Z,17.54
2019-04-19T11:35:53.073Z,17.52
2019-04-19T11:36:51.860Z,17.51
2019-04-19T11:37:53.071Z,18.09
2019-04-19T11:38:51.867Z,18.38
2019-04-19T11:39:52.941Z,18.08
2019-04-19T11:40:53.189Z,18.87
2019-04-19T11:41:51.851Z,18.38
2019-04-19T11:42:53.084Z,18.68
2019-04-19T11:43:51.871Z,18.19
2019-04-19T11:44:52.069Z,18.60
2019-04-19T11:45:51.854Z,18.60
2019-04-19T11:46:52.092Z,18.02
2019-04-19T11:47:51.846Z,18.21
2019-04-19T11:48:52.106Z,18.12
2019-04-19T11:49:51.863Z,18.13
2019-04-19T11:50:51.951Z,17.05
2019-04-19T11:51:53.128Z,17.54
2019-04-19T11:52:51.856Z,17.33
2019-04-19T11:53:52.451Z,17.14
2019-04-19T11:54:52.591Z,17.24
2019-04-19T11:55:51.848Z,17.43
2019-04-19T11:56:58.283Z,17.83
2019-04-19T11:57:52.505Z,16.95
2019-04-19T11:58:52.907Z,16.94
2019-04-19T11:59:54.010Z,16.83
2019-04-19T12:00:51.890Z,17.32
2019-04-19T12:01:52.155Z,17.90
2019-04-19T12:02:51.881Z,17.52
2019-04-19T12:03:52.148Z,17.53
2019-04-19T12:04:52.449Z,17.63
2019-04-19T12:05:51.858Z,17.24
2019-04-19T12:06:52.327Z,17.24
2019-04-19T12:07:52.585Z,17.24
2019-04-19T12:08:51.858Z,16.95
2019-04-19T12:09:52.386Z,16.75
2019-04-19T12:10:52.488Z,17.24
2019-04-19T12:11:51.861Z,17.24
2019-04-19T12:12:53.092Z,17.05
2019-04-19T12:13:52.246Z,16.95
2019-04-19T12:14:52.119Z,16.66
2019-04-19T12:15:52.812Z,16.76
2019-04-19T12:16:53.046Z,16.86
2019-04-19T12:17:52.319Z,16.85
2019-04-19T12:18:51.974Z,16.95
2019-04-19T12:19:57.402Z,16.75
2019-04-19T12:20:53.250Z,17.05
2019-04-19T12:21:53.902Z,16.86
2019-04-19T12:22:51.899Z,17.07
2019-04-19T12:23:52.941Z,16.58
2019-04-19T12:24:54.017Z,16.39
2019-04-19T12:25:51.897Z,16.11
2019-04-19T12:26:51.890Z,15.32
2019-04-19T12:27:51.973Z,15.42
2019-04-19T12:28:51.901Z,15.81
2019-04-19T12:29:54.940Z,15.61
2019-04-19T12:30:55.029Z,15.52
2019-04-19T12:31:54.287Z,15.42
2019-04-19T12:32:53.029Z,15.42
2019-04-19T12:33:51.909Z,15.42
2019-04-19T12:34:52.958Z,15.52
2019-04-19T12:35:53.032Z,15.32
2019-04-19T12:36:53.022Z,15.42
2019-04-19T12:37:53.287Z,15.41
2019-04-19T12:38:51.935Z,15.70
2019-04-19T12:39:52.875Z,15.41
2019-04-19T12:40:52.033Z,15.40
2019-04-19T12:41:52.244Z,15.48
2019-04-19T12:42:52.045Z,15.39
2019-04-19T12:43:51.979Z,15.09
2019-04-19T12:44:52.162Z,15.47
2019-04-19T12:45:52.533Z,15.76
2019-04-19T12:46:52.939Z,16.05
2019-04-19T12:47:53.097Z,16.35
2019-04-19T12:48:51.974Z,16.35
2019-04-19T12:49:59.555Z,16.06
2019-04-19T12:50:51.982Z,16.06
2019-04-19T12:51:52.285Z,16.27
2019-04-19T12:52:51.983Z,16.37
2019-04-19T12:53:52.550Z,15.98
2019-04-19T12:54:52.102Z,16.08
2019-04-19T12:55:52.016Z,16.28
2019-04-19T12:56:52.010Z,15.99
2019-04-19T12:57:52.193Z,16.18
2019-04-19T12:58:52.021Z,15.69
2019-04-19T12:59:52.026Z,15.58
2019-04-19T13:00:52.266Z,15.69
2019-04-19T13:01:52.037Z,15.78
2019-04-19T13:02:52.042Z,15.78
2019-04-19T13:03:52.519Z,15.48
2019-04-19T13:04:52.054Z,15.48
2019-04-19T13:05:53.313Z,15.48
2019-04-19T13:06:52.486Z,15.78
2019-04-19T13:07:53.397Z,15.59
2019-04-19T13:08:52.930Z,15.79
2019-04-19T13:09:53.037Z,15.60
2019-04-19T13:10:53.031Z,15.30
2019-04-19T13:11:52.584Z,15.09
2019-04-19T13:12:52.099Z,15.38
2019-04-19T13:13:52.200Z,16.06
2019-04-19T13:14:53.418Z,16.36
2019-04-19T13:15:52.364Z,16.27
2019-04-19T13:16:52.535Z,16.38
2019-04-19T13:17:52.130Z,16.08
2019-04-19T13:18:52.260Z,16.08
2019-04-19T13:20:04.219Z,15.99
2019-04-19T13:20:52.303Z,15.99
2019-04-19T13:21:52.325Z,16.08
2019-04-19T13:22:52.606Z,16.38
2019-04-19T13:23:52.720Z,16.08
2019-04-19T13:24:52.299Z,16.19
2019-04-19T13:25:53.291Z,16.19
2019-04-19T13:26:53.249Z,15.80
2019-04-19T13:27:55.060Z,15.50
2019-04-19T13:28:53.331Z,15.41
2019-04-19T13:30:05.347Z,15.20
2019-04-19T13:30:55.985Z,15.20
2019-04-19T13:31:52.506Z,14.90
2019-04-19T13:32:52.314Z,14.60
2019-04-19T13:33:53.283Z,14.89
2019-04-19T13:34:52.250Z,15.17
2019-04-19T13:35:53.086Z,15.17
2019-04-19T13:36:53.267Z,15.16
2019-04-19T13:37:52.275Z,15.16
2019-04-19T13:38:53.002Z,14.96
2019-04-19T13:39:52.289Z,15.05
2019-04-19T13:40:53.166Z,15.14
2019-04-19T13:41:52.622Z,15.14
2019-04-19T13:42:55.253Z,15.24
2019-04-19T13:43:53.251Z,14.95
2019-04-19T13:44:52.572Z,15.14
2019-04-19T13:45:52.699Z,15.42
2019-04-19T13:46:52.873Z,15.12
2019-04-19T13:47:52.349Z,15.80
2019-04-19T13:48:52.600Z,16.10
2019-04-19T13:49:54.374Z,16.10
2019-04-19T13:50:52.361Z,15.91
2019-04-19T13:51:52.580Z,15.90
2019-04-19T13:52:52.946Z,16.00
2019-04-19T13:53:52.389Z,16.29
2019-04-19T13:54:52.587Z,15.90
2019-04-19T13:55:52.742Z,16.29
2019-04-19T13:56:52.701Z,16.58
2019-04-19T13:57:53.563Z,16.88
2019-04-19T13:58:53.707Z,16.49
2019-04-19T13:59:59.296Z,16.39
2019-04-19T14:00:52.420Z,16.39
2019-04-19T14:01:52.516Z,16.78